sensor_id;sensor_type;location;lat;lon;timestamp;P1;durP1;ratioP1;P2;durP2;ratioP2
65656;SDS011;57397;50.096;14.404;2022-12-16T00:01:54;37.40;;;17.23;;
65656;SDS011;57397;50.096;14.404;2022-12-16T00:04:19;35.72;;;17.50;;
65656;SDS011;57397;50.096;14.404;2022-12-16T00:06:45;35.08;;;16.65;;
65656;SDS011;57397;50.096;14.404;2022-12-16T00:09:10;37.15;;;18.38;;
65656;SDS011;57397;50.096;14.404;2022-12-16T00:11:36;35.17;;;18.20;;
65656;SDS011;57397;50.096;14.404;2022-12-16T00:14:01;36.60;;;17.15;;
65656;SDS011;57397;50.096;14.404;2022-12-16T00:16:27;35.40;;;16.85;;
65656;SDS011;57397;50.096;14.404;2022-12-16T00:18:53;36.60;;;17.35;;
65656;SDS011;57397;50.096;14.404;2022-12-16T00:21:19;35.97;;;17.20;;
65656;SDS011;57397;50.096;14.404;2022-12-16T00:23:44;36.15;;;17.60;;
65656;SDS011;57397;50.096;14.404;2022-12-16T00:26:11;35.90;;;17.35;;
65656;SDS011;57397;50.096;14.404;2022-12-16T00:28:37;36.35;;;17.67;;
65656;SDS011;57397;50.096;14.404;2022-12-16T00:31:03;35.38;;;17.48;;
65656;SDS011;57397;50.096;14.404;2022-12-16T00:33:28;32.67;;;16.95;;
65656;SDS011;57397;50.096;14.404;2022-12-16T00:35:54;39.75;;;17.60;;
65656;SDS011;57397;50.096;14.404;2022-12-16T00:38:20;34.10;;;16.73;;
65656;SDS011;57397;50.096;14.404;2022-12-16T00:40:46;35.45;;;16.52;;
65656;SDS011;57397;50.096;14.404;2022-12-16T00:43:12;38.72;;;17.08;;
65656;SDS011;57397;50.096;14.404;2022-12-16T00:45:37;33.58;;;16.83;;
65656;SDS011;57397;50.096;14.404;2022-12-16T00:48:03;34.28;;;15.82;;
65656;SDS011;57397;50.096;14.404;2022-12-16T00:50:29;34.40;;;16.55;;
65656;SDS011;57397;50.096;14.404;2022-12-16T00:52:54;41.17;;;17.05;;
65656;SDS011;57397;50.096;14.404;2022-12-16T00:55:20;36.15;;;16.17;;
65656;SDS011;57397;50.096;14.404;2022-12-16T00:57:45;34.08;;;16.73;;
65656;SDS011;57397;50.096;14.404;2022-12-16T01:00:12;35.97;;;16.48;;
65656;SDS011;57397;50.096;14.404;2022-12-16T01:02:39;38.08;;;16.92;;
65656;SDS011;57397;50.096;14.404;2022-12-16T01:05:10;34.33;;;15.80;;
65656;SDS011;57397;50.096;14.404;2022-12-16T01:07:36;34.97;;;16.92;;
65656;SDS011;57397;50.096;14.404;2022-12-16T01:10:02;35.25;;;16.27;;
65656;SDS011;57397;50.096;14.404;2022-12-16T01:12:29;34.15;;;16.08;;
65656;SDS011;57397;50.096;14.404;2022-12-16T01:14:57;34.55;;;16.45;;
65656;SDS011;57397;50.096;14.404;2022-12-16T01:17:23;36.55;;;16.17;;
65656;SDS011;57397;50.096;14.404;2022-12-16T01:19:50;33.85;;;16.30;;
65656;SDS011;57397;50.096;14.404;2022-12-16T01:22:16;35.83;;;16.77;;
65656;SDS011;57397;50.096;14.404;2022-12-16T01:24:42;38.83;;;16.40;;
65656;SDS011;57397;50.096;14.404;2022-12-16T01:27:11;31.80;;;15.02;;
65656;SDS011;57397;50.096;14.404;2022-12-16T01:29:36;30.52;;;15.65;;
65656;SDS011;57397;50.096;14.404;2022-12-16T01:32:02;34.10;;;16.10;;
65656;SDS011;57397;50.096;14.404;2022-12-16T01:34:28;35.90;;;15.88;;
65656;SDS011;57397;50.096;14.404;2022-12-16T01:36:53;32.67;;;15.73;;
65656;SDS011;57397;50.096;14.404;2022-12-16T01:39:19;34.65;;;15.70;;
65656;SDS011;57397;50.096;14.404;2022-12-16T01:41:44;30.63;;;15.02;;
65656;SDS011;57397;50.096;14.404;2022-12-16T01:44:14;34.13;;;15.50;;
65656;SDS011;57397;50.096;14.404;2022-12-16T01:46:41;33.75;;;15.52;;
65656;SDS011;57397;50.096;14.404;2022-12-16T01:49:10;32.33;;;15.55;;
65656;SDS011;57397;50.096;14.404;2022-12-16T01:51:41;36.35;;;16.40;;
65656;SDS011;57397;50.096;14.404;2022-12-16T01:54:42;33.15;;;14.73;;
65656;SDS011;57397;50.096;14.404;2022-12-16T01:57:12;32.22;;;14.00;;
65656;SDS011;57397;50.096;14.404;2022-12-16T01:59:42;31.08;;;15.05;;
65656;SDS011;57397;50.096;14.404;2022-12-16T02:02:09;32.97;;;15.63;;
65656;SDS011;57397;50.096;14.404;2022-12-16T02:04:36;34.08;;;15.43;;
65656;SDS011;57397;50.096;14.404;2022-12-16T02:09:46;29.58;;;13.73;;
65656;SDS011;57397;50.096;14.404;2022-12-16T02:12:20;31.75;;;14.65;;
65656;SDS011;57397;50.096;14.404;2022-12-16T02:14:57;30.38;;;13.43;;
65656;SDS011;57397;50.096;14.404;2022-12-16T02:29:16;31.35;;;14.02;;
65656;SDS011;57397;50.096;14.404;2022-12-16T02:43:03;28.67;;;13.57;;
65656;SDS011;57397;50.096;14.404;2022-12-16T02:45:31;30.92;;;14.02;;
65656;SDS011;57397;50.096;14.404;2022-12-16T02:47:57;32.65;;;13.90;;
65656;SDS011;57397;50.096;14.404;2022-12-16T02:50:32;29.05;;;13.23;;
65656;SDS011;57397;50.096;14.404;2022-12-16T02:53:00;30.73;;;14.40;;
65656;SDS011;57397;50.096;14.404;2022-12-16T03:01:05;28.00;;;13.30;;
65656;SDS011;57397;50.096;14.404;2022-12-16T03:03:42;27.20;;;13.02;;
65656;SDS011;57397;50.096;14.404;2022-12-16T03:06:13;27.27;;;12.98;;
65656;SDS011;57397;50.096;14.404;2022-12-16T03:08:40;29.33;;;13.27;;
65656;SDS011;57397;50.096;14.404;2022-12-16T03:11:08;27.63;;;12.68;;
65656;SDS011;57397;50.096;14.404;2022-12-16T03:13:38;26.67;;;13.10;;
65656;SDS011;57397;50.096;14.404;2022-12-16T03:16:06;25.27;;;13.13;;
65656;SDS011;57397;50.096;14.404;2022-12-16T03:18:33;26.85;;;13.00;;
65656;SDS011;57397;50.096;14.404;2022-12-16T03:21:01;27.02;;;13.13;;
65656;SDS011;57397;50.096;14.404;2022-12-16T03:23:30;32.05;;;13.20;;
65656;SDS011;57397;50.096;14.404;2022-12-16T03:26:00;27.40;;;12.90;;
65656;SDS011;57397;50.096;14.404;2022-12-16T03:28:35;27.50;;;13.13;;
65656;SDS011;57397;50.096;14.404;2022-12-16T03:34:16;29.40;;;12.85;;
65656;SDS011;57397;50.096;14.404;2022-12-16T03:36:57;26.13;;;12.35;;
65656;SDS011;57397;50.096;14.404;2022-12-16T03:39:26;30.13;;;12.93;;
65656;SDS011;57397;50.096;14.404;2022-12-16T03:41:52;25.85;;;12.82;;
65656;SDS011;57397;50.096;14.404;2022-12-16T03:44:19;28.48;;;13.13;;
65656;SDS011;57397;50.096;14.404;2022-12-16T03:46:46;26.45;;;12.10;;
65656;SDS011;57397;50.096;14.404;2022-12-16T03:49:11;25.52;;;12.68;;
65656;SDS011;57397;50.096;14.404;2022-12-16T03:51:37;28.95;;;12.70;;
65656;SDS011;57397;50.096;14.404;2022-12-16T03:54:02;27.80;;;12.98;;
65656;SDS011;57397;50.096;14.404;2022-12-16T03:56:28;26.23;;;13.18;;
65656;SDS011;57397;50.096;14.404;2022-12-16T03:58:53;26.83;;;12.93;;
65656;SDS011;57397;50.096;14.404;2022-12-16T04:01:18;25.15;;;12.68;;
65656;SDS011;57397;50.096;14.404;2022-12-16T04:03:44;25.67;;;12.52;;
65656;SDS011;57397;50.096;14.404;2022-12-16T04:06:09;25.88;;;12.60;;
65656;SDS011;57397;50.096;14.404;2022-12-16T04:08:35;26.17;;;12.93;;
65656;SDS011;57397;50.096;14.404;2022-12-16T04:11:00;26.85;;;11.85;;
65656;SDS011;57397;50.096;14.404;2022-12-16T04:13:44;31.00;;;12.68;;
65656;SDS011;57397;50.096;14.404;2022-12-16T04:16:28;23.95;;;11.55;;
65656;SDS011;57397;50.096;14.404;2022-12-16T04:19:21;24.95;;;12.52;;
65656;SDS011;57397;50.096;14.404;2022-12-16T04:22:17;27.52;;;12.25;;
65656;SDS011;57397;50.096;14.404;2022-12-16T04:25:05;24.63;;;11.20;;
65656;SDS011;57397;50.096;14.404;2022-12-16T04:27:32;27.05;;;12.45;;
65656;SDS011;57397;50.096;14.404;2022-12-16T04:29:58;27.00;;;12.65;;
65656;SDS011;57397;50.096;14.404;2022-12-16T04:32:42;28.75;;;12.38;;
65656;SDS011;57397;50.096;14.404;2022-12-16T04:35:26;22.98;;;11.93;;
65656;SDS011;57397;50.096;14.404;2022-12-16T04:38:10;24.27;;;12.07;;
65656;SDS011;57397;50.096;14.404;2022-12-16T04:40:53;27.75;;;12.77;;
65656;SDS011;57397;50.096;14.404;2022-12-16T04:43:38;26.10;;;12.05;;
65656;SDS011;57397;50.096;14.404;2022-12-16T04:46:21;27.27;;;12.48;;
65656;SDS011;57397;50.096;14.404;2022-12-16T04:49:05;23.35;;;11.02;;
65656;SDS011;57397;50.096;14.404;2022-12-16T04:51:49;25.90;;;12.45;;
65656;SDS011;57397;50.096;14.404;2022-12-16T04:54:33;25.23;;;11.57;;
65656;SDS011;57397;50.096;14.404;2022-12-16T04:57:17;25.27;;;11.40;;
65656;SDS011;57397;50.096;14.404;2022-12-16T05:00:01;23.35;;;11.40;;
65656;SDS011;57397;50.096;14.404;2022-12-16T05:02:47;25.20;;;12.27;;
65656;SDS011;57397;50.096;14.404;2022-12-16T05:05:32;23.98;;;11.02;;
65656;SDS011;57397;50.096;14.404;2022-12-16T05:08:16;23.40;;;11.10;;
65656;SDS011;57397;50.096;14.404;2022-12-16T05:11:00;25.50;;;11.85;;
65656;SDS011;57397;50.096;14.404;2022-12-16T05:13:44;23.40;;;11.07;;
65656;SDS011;57397;50.096;14.404;2022-12-16T05:16:28;24.02;;;11.75;;
65656;SDS011;57397;50.096;14.404;2022-12-16T05:19:11;25.80;;;12.15;;
65656;SDS011;57397;50.096;14.404;2022-12-16T05:21:55;25.38;;;12.60;;
65656;SDS011;57397;50.096;14.404;2022-12-16T05:24:40;24.83;;;11.70;;
65656;SDS011;57397;50.096;14.404;2022-12-16T05:27:24;23.00;;;11.63;;
65656;SDS011;57397;50.096;14.404;2022-12-16T05:30:08;26.33;;;12.45;;
65656;SDS011;57397;50.096;14.404;2022-12-16T05:32:52;26.13;;;11.93;;
65656;SDS011;57397;50.096;14.404;2022-12-16T05:35:44;23.23;;;11.02;;
65656;SDS011;57397;50.096;14.404;2022-12-16T05:38:28;23.60;;;11.23;;
65656;SDS011;57397;50.096;14.404;2022-12-16T05:41:12;27.25;;;11.95;;
65656;SDS011;57397;50.096;14.404;2022-12-16T05:43:56;23.20;;;11.10;;
65656;SDS011;57397;50.096;14.404;2022-12-16T05:46:40;25.58;;;11.82;;
65656;SDS011;57397;50.096;14.404;2022-12-16T05:49:24;26.20;;;11.73;;
65656;SDS011;57397;50.096;14.404;2022-12-16T05:52:08;25.58;;;11.32;;
65656;SDS011;57397;50.096;14.404;2022-12-16T05:54:52;27.70;;;11.88;;
65656;SDS011;57397;50.096;14.404;2022-12-16T05:57:36;25.92;;;12.82;;
65656;SDS011;57397;50.096;14.404;2022-12-16T06:00:20;24.67;;;11.65;;
65656;SDS011;57397;50.096;14.404;2022-12-16T06:03:04;23.42;;;11.30;;
65656;SDS011;57397;50.096;14.404;2022-12-16T06:05:48;24.80;;;12.18;;
65656;SDS011;57397;50.096;14.404;2022-12-16T06:08:32;24.98;;;11.98;;
65656;SDS011;57397;50.096;14.404;2022-12-16T06:11:16;24.65;;;11.27;;
65656;SDS011;57397;50.096;14.404;2022-12-16T06:14:00;22.45;;;11.77;;
65656;SDS011;57397;50.096;14.404;2022-12-16T06:16:44;24.67;;;11.57;;
65656;SDS011;57397;50.096;14.404;2022-12-16T06:19:28;24.63;;;11.65;;
65656;SDS011;57397;50.096;14.404;2022-12-16T06:22:12;23.05;;;10.85;;
65656;SDS011;57397;50.096;14.404;2022-12-16T06:24:56;25.45;;;10.80;;
65656;SDS011;57397;50.096;14.404;2022-12-16T06:27:41;23.85;;;11.50;;
65656;SDS011;57397;50.096;14.404;2022-12-16T06:30:25;22.30;;;10.57;;
65656;SDS011;57397;50.096;14.404;2022-12-16T06:33:09;20.92;;;10.43;;
65656;SDS011;57397;50.096;14.404;2022-12-16T06:35:53;22.17;;;10.60;;
65656;SDS011;57397;50.096;14.404;2022-12-16T06:38:36;22.65;;;10.48;;
65656;SDS011;57397;50.096;14.404;2022-12-16T06:41:21;21.60;;;10.80;;
65656;SDS011;57397;50.096;14.404;2022-12-16T06:44:04;21.75;;;10.90;;
65656;SDS011;57397;50.096;14.404;2022-12-16T06:46:49;20.92;;;9.65;;
65656;SDS011;57397;50.096;14.404;2022-12-16T06:49:32;23.75;;;11.25;;
65656;SDS011;57397;50.096;14.404;2022-12-16T06:52:16;24.98;;;10.38;;
65656;SDS011;57397;50.096;14.404;2022-12-16T06:55:00;24.48;;;10.93;;
65656;SDS011;57397;50.096;14.404;2022-12-16T06:57:44;21.98;;;10.43;;
65656;SDS011;57397;50.096;14.404;2022-12-16T07:00:28;22.02;;;10.82;;
65656;SDS011;57397;50.096;14.404;2022-12-16T07:03:12;22.25;;;10.60;;
65656;SDS011;57397;50.096;14.404;2022-12-16T07:05:56;22.10;;;10.50;;
65656;SDS011;57397;50.096;14.404;2022-12-16T07:08:40;20.45;;;10.32;;
65656;SDS011;57397;50.096;14.404;2022-12-16T07:11:24;25.30;;;11.43;;
65656;SDS011;57397;50.096;14.404;2022-12-16T07:14:08;23.15;;;10.63;;
65656;SDS011;57397;50.096;14.404;2022-12-16T07:16:52;22.67;;;10.52;;
65656;SDS011;57397;50.096;14.404;2022-12-16T07:19:36;22.27;;;10.70;;
65656;SDS011;57397;50.096;14.404;2022-12-16T07:22:20;20.15;;;10.18;;
65656;SDS011;57397;50.096;14.404;2022-12-16T07:25:04;23.20;;;10.30;;
65656;SDS011;57397;50.096;14.404;2022-12-16T07:27:50;21.38;;;9.98;;
65656;SDS011;57397;50.096;14.404;2022-12-16T07:30:34;22.05;;;10.40;;
65656;SDS011;57397;50.096;14.404;2022-12-16T07:33:18;21.75;;;9.82;;
65656;SDS011;57397;50.096;14.404;2022-12-16T07:36:02;20.17;;;9.17;;
65656;SDS011;57397;50.096;14.404;2022-12-16T07:38:46;18.83;;;9.25;;
65656;SDS011;57397;50.096;14.404;2022-12-16T07:41:30;20.65;;;9.45;;
65656;SDS011;57397;50.096;14.404;2022-12-16T07:44:14;22.10;;;9.95;;
65656;SDS011;57397;50.096;14.404;2022-12-16T07:46:58;17.88;;;9.45;;
65656;SDS011;57397;50.096;14.404;2022-12-16T07:49:42;19.13;;;9.00;;
65656;SDS011;57397;50.096;14.404;2022-12-16T07:52:26;17.52;;;8.30;;
65656;SDS011;57397;50.096;14.404;2022-12-16T07:55:10;17.92;;;9.32;;
65656;SDS011;57397;50.096;14.404;2022-12-16T07:57:54;15.80;;;8.45;;
65656;SDS011;57397;50.096;14.404;2022-12-16T08:00:38;20.30;;;8.77;;
65656;SDS011;57397;50.096;14.404;2022-12-16T08:03:22;18.30;;;8.40;;
65656;SDS011;57397;50.096;14.404;2022-12-16T08:06:05;18.05;;;8.75;;
65656;SDS011;57397;50.096;14.404;2022-12-16T08:08:50;18.83;;;8.82;;
65656;SDS011;57397;50.096;14.404;2022-12-16T08:11:33;15.35;;;7.45;;
65656;SDS011;57397;50.096;14.404;2022-12-16T08:14:18;17.58;;;8.90;;
65656;SDS011;57397;50.096;14.404;2022-12-16T08:17:02;15.63;;;7.53;;
65656;SDS011;57397;50.096;14.404;2022-12-16T08:19:46;16.33;;;7.82;;
65656;SDS011;57397;50.096;14.404;2022-12-16T08:22:31;14.23;;;7.07;;
65656;SDS011;57397;50.096;14.404;2022-12-16T08:25:15;13.68;;;6.75;;
65656;SDS011;57397;50.096;14.404;2022-12-16T08:27:59;16.73;;;7.57;;
65656;SDS011;57397;50.096;14.404;2022-12-16T08:30:43;16.30;;;7.90;;
65656;SDS011;57397;50.096;14.404;2022-12-16T08:33:26;14.50;;;7.75;;
65656;SDS011;57397;50.096;14.404;2022-12-16T08:36:10;15.00;;;7.38;;
65656;SDS011;57397;50.096;14.404;2022-12-16T08:38:54;16.58;;;7.50;;
65656;SDS011;57397;50.096;14.404;2022-12-16T08:41:46;15.25;;;7.47;;
65656;SDS011;57397;50.096;14.404;2022-12-16T08:44:30;16.48;;;7.90;;
65656;SDS011;57397;50.096;14.404;2022-12-16T08:47:14;16.77;;;7.70;;
65656;SDS011;57397;50.096;14.404;2022-12-16T08:49:58;15.68;;;7.68;;
65656;SDS011;57397;50.096;14.404;2022-12-16T08:52:41;16.73;;;8.07;;
65656;SDS011;57397;50.096;14.404;2022-12-16T08:55:25;17.00;;;7.90;;
65656;SDS011;57397;50.096;14.404;2022-12-16T08:58:09;15.13;;;7.90;;
65656;SDS011;57397;50.096;14.404;2022-12-16T09:00:53;15.02;;;7.45;;
65656;SDS011;57397;50.096;14.404;2022-12-16T09:03:37;17.45;;;8.20;;
65656;SDS011;57397;50.096;14.404;2022-12-16T09:06:21;14.60;;;7.22;;
65656;SDS011;57397;50.096;14.404;2022-12-16T09:09:06;15.90;;;7.82;;
65656;SDS011;57397;50.096;14.404;2022-12-16T09:11:50;14.03;;;6.73;;
65656;SDS011;57397;50.096;14.404;2022-12-16T09:14:34;14.73;;;7.35;;
65656;SDS011;57397;50.096;14.404;2022-12-16T09:17:18;16.38;;;7.85;;
65656;SDS011;57397;50.096;14.404;2022-12-16T09:20:02;14.77;;;7.45;;
65656;SDS011;57397;50.096;14.404;2022-12-16T09:22:46;12.48;;;7.30;;
65656;SDS011;57397;50.096;14.404;2022-12-16T09:25:30;16.45;;;7.30;;
65656;SDS011;57397;50.096;14.404;2022-12-16T09:28:14;14.43;;;6.97;;
65656;SDS011;57397;50.096;14.404;2022-12-16T09:30:58;12.73;;;6.30;;
65656;SDS011;57397;50.096;14.404;2022-12-16T09:33:42;15.52;;;7.38;;
65656;SDS011;57397;50.096;14.404;2022-12-16T09:36:26;15.43;;;6.88;;
65656;SDS011;57397;50.096;14.404;2022-12-16T09:39:10;14.38;;;7.15;;
65656;SDS011;57397;50.096;14.404;2022-12-16T09:41:58;15.38;;;7.32;;
65656;SDS011;57397;50.096;14.404;2022-12-16T09:44:56;15.38;;;6.88;;
65656;SDS011;57397;50.096;14.404;2022-12-16T09:51:07;12.30;;;6.50;;
65656;SDS011;57397;50.096;14.404;2022-12-16T09:53:52;12.32;;;6.18;;
65656;SDS011;57397;50.096;14.404;2022-12-16T09:56:38;12.63;;;7.00;;
65656;SDS011;57397;50.096;14.404;2022-12-16T09:59:24;12.70;;;6.28;;
65656;SDS011;57397;50.096;14.404;2022-12-16T10:02:11;13.77;;;6.97;;
65656;SDS011;57397;50.096;14.404;2022-12-16T10:04:56;13.25;;;6.57;;
65656;SDS011;57397;50.096;14.404;2022-12-16T10:07:42;14.38;;;6.90;;
65656;SDS011;57397;50.096;14.404;2022-12-16T10:11:03;12.95;;;6.68;;
65656;SDS011;57397;50.096;14.404;2022-12-16T10:14:05;14.57;;;6.82;;
65656;SDS011;57397;50.096;14.404;2022-12-16T10:16:59;14.38;;;6.43;;
65656;SDS011;57397;50.096;14.404;2022-12-16T10:25:25;12.25;;;6.47;;
65656;SDS011;57397;50.096;14.404;2022-12-16T10:28:16;11.57;;;6.20;;
65656;SDS011;57397;50.096;14.404;2022-12-16T10:31:02;13.48;;;6.75;;
65656;SDS011;57397;50.096;14.404;2022-12-16T10:36:31;13.02;;;6.38;;
65656;SDS011;57397;50.096;14.404;2022-12-16T10:42:11;13.40;;;6.40;;
65656;SDS011;57397;50.096;14.404;2022-12-16T10:45:00;12.48;;;6.25;;
65656;SDS011;57397;50.096;14.404;2022-12-16T10:47:45;12.77;;;5.68;;
65656;SDS011;57397;50.096;14.404;2022-12-16T10:50:29;13.45;;;6.35;;
65656;SDS011;57397;50.096;14.404;2022-12-16T10:53:23;13.60;;;6.28;;
65656;SDS011;57397;50.096;14.404;2022-12-16T10:59:20;12.27;;;6.05;;
65656;SDS011;57397;50.096;14.404;2022-12-16T11:02:26;13.43;;;6.40;;
65656;SDS011;57397;50.096;14.404;2022-12-16T11:05:22;11.80;;;5.80;;
65656;SDS011;57397;50.096;14.404;2022-12-16T11:08:25;12.10;;;6.50;;
65656;SDS011;57397;50.096;14.404;2022-12-16T11:17:23;14.57;;;6.60;;
65656;SDS011;57397;50.096;14.404;2022-12-16T11:26:08;15.68;;;7.10;;
65656;SDS011;57397;50.096;14.404;2022-12-16T11:31:57;12.27;;;5.72;;
65656;SDS011;57397;50.096;14.404;2022-12-16T11:35:00;13.68;;;6.40;;
65656;SDS011;57397;50.096;14.404;2022-12-16T11:37:46;12.55;;;5.85;;
65656;SDS011;57397;50.096;14.404;2022-12-16T11:40:32;14.02;;;6.38;;
65656;SDS011;57397;50.096;14.404;2022-12-16T11:43:17;12.38;;;5.78;;
65656;SDS011;57397;50.096;14.404;2022-12-16T11:46:07;13.38;;;6.15;;
65656;SDS011;57397;50.096;14.404;2022-12-16T11:49:00;11.63;;;6.43;;
65656;SDS011;57397;50.096;14.404;2022-12-16T11:51:52;12.80;;;6.10;;
65656;SDS011;57397;50.096;14.404;2022-12-16T11:54:39;13.13;;;6.50;;
65656;SDS011;57397;50.096;14.404;2022-12-16T11:57:44;11.77;;;5.55;;
65656;SDS011;57397;50.096;14.404;2022-12-16T12:00:31;12.70;;;6.00;;
65656;SDS011;57397;50.096;14.404;2022-12-16T12:03:21;11.73;;;6.03;;
65656;SDS011;57397;50.096;14.404;2022-12-16T12:17:51;11.27;;;5.70;;
65656;SDS011;57397;50.096;14.404;2022-12-16T12:27:36;12.55;;;6.10;;
65656;SDS011;57397;50.096;14.404;2022-12-16T12:30:13;10.65;;;5.40;;
65656;SDS011;57397;50.096;14.404;2022-12-16T12:36:16;9.65;;;5.18;;
65656;SDS011;57397;50.096;14.404;2022-12-16T12:42:36;10.57;;;5.63;;
65656;SDS011;57397;50.096;14.404;2022-12-16T12:51:33;10.55;;;5.18;;
65656;SDS011;57397;50.096;14.404;2022-12-16T12:54:36;10.85;;;5.47;;
65656;SDS011;57397;50.096;14.404;2022-12-16T12:57:42;12.07;;;5.30;;
65656;SDS011;57397;50.096;14.404;2022-12-16T13:00:28;11.00;;;5.68;;
65656;SDS011;57397;50.096;14.404;2022-12-16T13:03:15;11.63;;;5.43;;
65656;SDS011;57397;50.096;14.404;2022-12-16T13:06:12;12.80;;;5.53;;
65656;SDS011;57397;50.096;14.404;2022-12-16T13:08:57;11.13;;;5.45;;
65656;SDS011;57397;50.096;14.404;2022-12-16T13:12:18;11.90;;;5.30;;
65656;SDS011;57397;50.096;14.404;2022-12-16T13:20:42;9.85;;;5.30;;
65656;SDS011;57397;50.096;14.404;2022-12-16T13:26:13;12.50;;;6.00;;
65656;SDS011;57397;50.096;14.404;2022-12-16T13:29:20;11.52;;;5.93;;
65656;SDS011;57397;50.096;14.404;2022-12-16T13:37:56;10.32;;;5.47;;
65656;SDS011;57397;50.096;14.404;2022-12-16T13:44:10;11.10;;;5.45;;
65656;SDS011;57397;50.096;14.404;2022-12-16T13:46:55;11.77;;;5.70;;
65656;SDS011;57397;50.096;14.404;2022-12-16T13:49:41;11.27;;;5.80;;
65656;SDS011;57397;50.096;14.404;2022-12-16T13:52:43;13.20;;;6.15;;
65656;SDS011;57397;50.096;14.404;2022-12-16T13:58:33;13.10;;;6.05;;
65656;SDS011;57397;50.096;14.404;2022-12-16T14:01:42;12.52;;;6.00;;
65656;SDS011;57397;50.096;14.404;2022-12-16T14:04:35;14.82;;;6.90;;
65656;SDS011;57397;50.096;14.404;2022-12-16T14:07:21;14.63;;;7.13;;
65656;SDS011;57397;50.096;14.404;2022-12-16T14:10:24;13.27;;;7.10;;
65656;SDS011;57397;50.096;14.404;2022-12-16T14:13:25;15.82;;;7.30;;
65656;SDS011;57397;50.096;14.404;2022-12-16T14:19:28;12.40;;;6.78;;
65656;SDS011;57397;50.096;14.404;2022-12-16T14:25:26;14.57;;;6.90;;
65656;SDS011;57397;50.096;14.404;2022-12-16T14:31:43;14.82;;;7.60;;
65656;SDS011;57397;50.096;14.404;2022-12-16T14:34:14;14.65;;;7.07;;
65656;SDS011;57397;50.096;14.404;2022-12-16T14:37:00;18.67;;;8.43;;
65656;SDS011;57397;50.096;14.404;2022-12-16T14:40:19;15.68;;;8.52;;
65656;SDS011;57397;50.096;14.404;2022-12-16T14:43:17;18.45;;;8.57;;
65656;SDS011;57397;50.096;14.404;2022-12-16T14:46:17;17.20;;;8.63;;
65656;SDS011;57397;50.096;14.404;2022-12-16T14:49:22;17.40;;;9.00;;
65656;SDS011;57397;50.096;14.404;2022-12-16T14:52:15;16.92;;;8.35;;
65656;SDS011;57397;50.096;14.404;2022-12-16T14:58:28;16.67;;;8.63;;
65656;SDS011;57397;50.096;14.404;2022-12-16T15:01:17;18.85;;;8.93;;
65656;SDS011;57397;50.096;14.404;2022-12-16T15:04:07;18.40;;;9.25;;
65656;SDS011;57397;50.096;14.404;2022-12-16T15:06:57;17.50;;;8.50;;
65656;SDS011;57397;50.096;14.404;2022-12-16T15:09:48;24.30;;;10.07;;
65656;SDS011;57397;50.096;14.404;2022-12-16T15:12:34;19.58;;;8.95;;
65656;SDS011;57397;50.096;14.404;2022-12-16T15:18:21;21.30;;;9.85;;
65656;SDS011;57397;50.096;14.404;2022-12-16T15:21:10;21.17;;;10.02;;
65656;SDS011;57397;50.096;14.404;2022-12-16T15:23:54;22.23;;;9.88;;
65656;SDS011;57397;50.096;14.404;2022-12-16T15:26:38;20.02;;;9.30;;
65656;SDS011;57397;50.096;14.404;2022-12-16T15:29:27;20.73;;;10.02;;
65656;SDS011;57397;50.096;14.404;2022-12-16T15:35:07;19.45;;;9.43;;
65656;SDS011;57397;50.096;14.404;2022-12-16T15:37:51;18.77;;;9.37;;
65656;SDS011;57397;50.096;14.404;2022-12-16T15:40:35;18.85;;;9.18;;
65656;SDS011;57397;50.096;14.404;2022-12-16T15:46:26;19.23;;;9.02;;
65656;SDS011;57397;50.096;14.404;2022-12-16T15:49:29;20.92;;;9.45;;
65656;SDS011;57397;50.096;14.404;2022-12-16T15:55:38;19.83;;;9.30;;
65656;SDS011;57397;50.096;14.404;2022-12-16T15:58:27;19.45;;;9.02;;
65656;SDS011;57397;50.096;14.404;2022-12-16T16:01:13;18.90;;;9.52;;
65656;SDS011;57397;50.096;14.404;2022-12-16T16:04:02;20.40;;;9.63;;
65656;SDS011;57397;50.096;14.404;2022-12-16T16:06:50;18.85;;;8.95;;
65656;SDS011;57397;50.096;14.404;2022-12-16T16:09:35;19.00;;;9.07;;
65656;SDS011;57397;50.096;14.404;2022-12-16T16:12:21;17.40;;;8.75;;
65656;SDS011;57397;50.096;14.404;2022-12-16T16:15:07;17.73;;;8.93;;
65656;SDS011;57397;50.096;14.404;2022-12-16T16:17:54;17.65;;;9.05;;
65656;SDS011;57397;50.096;14.404;2022-12-16T16:20:40;19.10;;;9.20;;
65656;SDS011;57397;50.096;14.404;2022-12-16T16:23:24;20.00;;;8.98;;
65656;SDS011;57397;50.096;14.404;2022-12-16T16:26:12;19.80;;;9.57;;
65656;SDS011;57397;50.096;14.404;2022-12-16T16:29:00;19.35;;;8.43;;
65656;SDS011;57397;50.096;14.404;2022-12-16T16:31:47;20.92;;;10.13;;
65656;SDS011;57397;50.096;14.404;2022-12-16T16:34:31;19.65;;;9.35;;
65656;SDS011;57397;50.096;14.404;2022-12-16T16:37:16;20.30;;;10.35;;
65656;SDS011;57397;50.096;14.404;2022-12-16T16:40:37;20.15;;;9.68;;
65656;SDS011;57397;50.096;14.404;2022-12-16T16:43:19;23.30;;;10.65;;
65656;SDS011;57397;50.096;14.404;2022-12-16T16:46:27;21.00;;;10.67;;
65656;SDS011;57397;50.096;14.404;2022-12-16T16:49:11;20.48;;;9.95;;
65656;SDS011;57397;50.096;14.404;2022-12-16T16:51:56;21.08;;;9.65;;
65656;SDS011;57397;50.096;14.404;2022-12-16T16:54:41;22.00;;;10.55;;
65656;SDS011;57397;50.096;14.404;2022-12-16T16:57:26;20.92;;;9.63;;
65656;SDS011;57397;50.096;14.404;2022-12-16T17:00:15;19.85;;;10.48;;
65656;SDS011;57397;50.096;14.404;2022-12-16T17:02:59;21.45;;;10.18;;
65656;SDS011;57397;50.096;14.404;2022-12-16T17:05:43;21.75;;;10.02;;
65656;SDS011;57397;50.096;14.404;2022-12-16T17:08:27;21.63;;;10.23;;
65656;SDS011;57397;50.096;14.404;2022-12-16T17:11:15;19.08;;;9.50;;
65656;SDS011;57397;50.096;14.404;2022-12-16T17:14:01;19.70;;;9.55;;
65656;SDS011;57397;50.096;14.404;2022-12-16T17:16:45;21.58;;;10.07;;
65656;SDS011;57397;50.096;14.404;2022-12-16T17:19:28;21.10;;;10.32;;
65656;SDS011;57397;50.096;14.404;2022-12-16T17:22:23;22.02;;;9.90;;
65656;SDS011;57397;50.096;14.404;2022-12-16T17:25:07;20.00;;;10.50;;
65656;SDS011;57397;50.096;14.404;2022-12-16T17:27:52;23.10;;;10.63;;
65656;SDS011;57397;50.096;14.404;2022-12-16T17:30:36;20.27;;;10.82;;
65656;SDS011;57397;50.096;14.404;2022-12-16T17:33:20;19.98;;;10.00;;
65656;SDS011;57397;50.096;14.404;2022-12-16T17:36:04;16.83;;;9.05;;
65656;SDS011;57397;50.096;14.404;2022-12-16T17:38:48;22.02;;;10.60;;
65656;SDS011;57397;50.096;14.404;2022-12-16T17:41:33;23.13;;;10.47;;
65656;SDS011;57397;50.096;14.404;2022-12-16T17:44:17;21.30;;;10.02;;
65656;SDS011;57397;50.096;14.404;2022-12-16T17:47:01;20.42;;;10.05;;
65656;SDS011;57397;50.096;14.404;2022-12-16T17:49:45;20.73;;;10.23;;
65656;SDS011;57397;50.096;14.404;2022-12-16T17:52:29;24.27;;;10.27;;
65656;SDS011;57397;50.096;14.404;2022-12-16T17:55:16;23.70;;;10.95;;
65656;SDS011;57397;50.096;14.404;2022-12-16T17:58:04;21.52;;;10.48;;
65656;SDS011;57397;50.096;14.404;2022-12-16T18:00:48;23.85;;;11.45;;
65656;SDS011;57397;50.096;14.404;2022-12-16T18:03:32;20.60;;;10.90;;
65656;SDS011;57397;50.096;14.404;2022-12-16T18:06:16;24.10;;;11.65;;